Aeroporto :
LOGIN :

Iscrizione | Disclaimer

   EN    FR    IT 

 










Sommario :    VFR   VFR Marginale   IFR   IFR Intensivo   IFR Molto Intensivo
Visibilità : 
Base nubi : 
>= 8 km
>= 3000ft
5 / 8 km
1000 / 3000 ft
1500m / 5 km
500 / 1000 ft
800 / 1500m
200 / 500 ft
< 800m
< 200 ft
Simboli :   Temporali  Nebbia  Neve Forte  Precipitazioni Forti  Vento > 20 kt
SIGMETs :   Varie  Temporali  Ghiacco  Turbolenza  Onda orograficha  Ceneri Vulcaniche






- Altitudine del aeroporto : 522 ft
- Codice IATA : CRV


LIBC - Santa Anna - Crotone

ULTIMO METAR :
  • 171450Z 20010KT CAVOK 14/08 Q1025

METARs OBSOLETI :
  • 171350Z 20010KT CAVOK 15/08 Q1025
  • 171250Z 19007KT 150V230 CAVOK 16/04 Q1025

TAF TAF LIBC
Valido dal 17 a 12 ore il 18 a 12 ore UTC


171100Z 1712/1812 VRB05KT CAVOK
BECMG 1712/1714 16010KT
BECMG 1717/1719 VRB04KT



MetMap, La meteo Aeronautica in un colpo d'occhio ! - Copyright ORBIFLY Dicembre 2007 - Disclaimer

ORBIFLY MET'MAP TEAM :

Programmazione e sviluppo : Alexandra Zaïnal
Concezione : Baudouin d'Aumeries
Aiuto per la programmazione : Marc-Olivier Méhu
Supporto tecnico e logistico : Manuel Goepfert
Aiuto per la traduzione : Arnaldo La Scala

Contatto : metmap@orbifly.com




FONTI E CREDITI :

   NOAA